createdAt,value
2018-09-01T00:00:55.633Z,102512.61
2018-09-01T00:03:23.400Z,102505.05
2018-09-01T00:05:51.161Z,102506.04
2018-09-01T00:08:19.878Z,102507.77
2018-09-01T00:10:47.650Z,102503.53
2018-09-01T00:13:15.431Z,102499.80
2018-09-01T00:15:43.208Z,102500.91
2018-09-01T00:18:10.945Z,102496.98
2018-09-01T00:20:38.701Z,102499.31
2018-09-01T00:23:06.452Z,102499.00
2018-09-01T00:25:34.302Z,102500.83
2018-09-01T00:28:02.034Z,102506.72
2018-09-01T00:30:29.850Z,102500.61
2018-09-01T00:32:57.610Z,102501.02
2018-09-01T00:35:25.361Z,102508.43
2018-09-01T00:37:58.733Z,102501.72
2018-09-01T00:40:27.138Z,102507.63
2018-09-01T00:42:56.538Z,102506.50
2018-09-01T00:45:24.325Z,102509.27
2018-09-01T00:47:52.093Z,102507.55
2018-09-01T00:50:19.890Z,102514.55
2018-09-01T00:52:47.778Z,102507.30
2018-09-01T00:55:20.987Z,102501.98
2018-09-01T00:57:48.806Z,102502.68
2018-09-01T01:00:16.576Z,102503.55
2018-09-01T01:02:44.357Z,102501.02
2018-09-01T01:05:12.158Z,102503.56
2018-09-01T01:07:40.002Z,102510.80
2018-09-01T01:10:07.815Z,102514.73
2018-09-01T01:12:35.564Z,102509.55
2018-09-01T01:15:03.362Z,102512.56
2018-09-01T01:17:31.115Z,102510.88
2018-09-01T01:19:58.857Z,102508.61
2018-09-01T01:22:26.604Z,102507.06
2018-09-01T01:24:54.379Z,102507.32
2018-09-01T01:27:22.147Z,102509.11
2018-09-01T01:29:49.901Z,102511.05
2018-09-01T01:32:17.677Z,102504.31
2018-09-01T01:34:45.441Z,102503.27
2018-09-01T01:37:13.185Z,102498.53
2018-09-01T01:39:40.949Z,102510.97
2018-09-01T01:42:08.933Z,102510.65
2018-09-01T01:44:36.722Z,102499.41
2018-09-01T01:47:04.544Z,102504.91
2018-09-01T01:49:32.331Z,102502.77
2018-09-01T01:52:00.089Z,102496.66
2018-09-01T01:54:27.845Z,102498.06
2018-09-01T01:56:55.605Z,102497.98
2018-09-01T01:59:23.354Z,102503.81
2018-09-01T02:01:51.103Z,102499.32
2018-09-01T02:04:18.878Z,102502.05
2018-09-01T02:06:46.626Z,102503.17
2018-09-01T02:09:14.413Z,102501.13
2018-09-01T02:11:42.234Z,102496.77
2018-09-01T02:14:10.108Z,102492.19
2018-09-01T02:16:37.855Z,102497.33
2018-09-01T02:19:06.002Z,102491.27
2018-09-01T02:21:33.760Z,102487.95
2018-09-01T02:24:01.510Z,102484.86
2018-09-01T02:26:29.279Z,102489.45
2018-09-01T02:28:57.034Z,102492.35
2018-09-01T02:31:24.866Z,102485.72
2018-09-01T02:33:52.610Z,102499.47
2018-09-01T02:36:20.366Z,102497.71
2018-09-01T02:38:48.120Z,102498.35
2018-09-01T02:41:15.840Z,102503.73
2018-09-01T02:43:43.630Z,102501.22
2018-09-01T02:46:11.389Z,102498.67
2018-09-01T02:48:39.162Z,102506.26
2018-09-01T02:51:06.943Z,102498.48
2018-09-01T02:53:34.778Z,102507.08
2018-09-01T02:56:02.605Z,102508.60
2018-09-01T02:58:30.518Z,102504.62
2018-09-01T03:01:03.918Z,102504.09
2018-09-01T03:03:31.698Z,102502.66
2018-09-01T03:05:59.454Z,102505.73
2018-09-01T03:08:27.250Z,102504.12
2018-09-01T03:10:55.031Z,102508.83
2018-09-01T03:13:22.787Z,102509.56
2018-09-01T03:15:50.561Z,102503.35
2018-09-01T03:18:18.321Z,102505.30
2018-09-01T03:20:46.077Z,102509.86
2018-09-01T03:23:13.819Z,102503.71
2018-09-01T03:25:41.573Z,102509.56
2018-09-01T03:28:09.330Z,102513.72
2018-09-01T03:30:37.001Z,102507.69
2018-09-01T03:33:04.697Z,102502.41
2018-09-01T03:35:32.365Z,102512.20
2018-09-01T03:38:00.086Z,102512.33
2018-09-01T03:40:27.736Z,102515.38
2018-09-01T03:42:55.385Z,102509.41
2018-09-01T03:45:23.025Z,102518.18
2018-09-01T03:47:50.928Z,102520.32
2018-09-01T03:50:18.590Z,102519.88
2018-09-01T03:52:46.311Z,102526.08
2018-09-01T03:55:14.029Z,102523.12
2018-09-01T03:57:41.657Z,102523.42
2018-09-01T04:00:09.317Z,102521.97
2018-09-01T04:02:37.234Z,102532.89
2018-09-01T04:05:05.267Z,102528.66
2018-09-01T04:07:32.900Z,102519.40
2018-09-01T04:10:00.548Z,102524.77
2018-09-01T04:12:28.221Z,102523.64
2018-09-01T04:14:55.845Z,102522.63
2018-09-01T04:17:23.503Z,102523.02
2018-09-01T04:19:51.161Z,102512.73
2018-09-01T04:22:18.849Z,102517.52
2018-09-01T04:24:46.503Z,102520.28
2018-09-01T04:27:14.171Z,102520.02
2018-09-01T04:29:41.858Z,102517.87
2018-09-01T04:32:09.614Z,102530.41
2018-09-01T04:34:37.229Z,102530.46
2018-09-01T04:37:05.007Z,102523.55
2018-09-01T04:39:32.682Z,102528.67
2018-09-01T04:42:00.385Z,102527.13
2018-09-01T04:44:28.043Z,102526.75
2018-09-01T04:46:55.872Z,102529.53
2018-09-01T04:49:23.517Z,102524.73
2018-09-01T04:51:51.153Z,102522.67
2018-09-01T04:54:18.818Z,102521.27
2018-09-01T04:56:46.488Z,102519.45
2018-09-01T04:59:14.134Z,102519.89
2018-09-01T05:01:41.789Z,102520.24
2018-09-01T05:04:09.451Z,102522.55
2018-09-01T05:06:37.106Z,102524.78
2018-09-01T05:09:06.170Z,102526.19
2018-09-01T05:11:33.815Z,102528.53
2018-09-01T05:14:01.485Z,102529.66
2018-09-01T05:16:29.244Z,102529.95
2018-09-01T05:18:57.000Z,102533.62
2018-09-01T05:21:24.662Z,102526.17
2018-09-01T05:23:52.399Z,102528.07
2018-09-01T05:26:20.056Z,102530.30
2018-09-01T05:28:47.828Z,102523.30
2018-09-01T05:31:15.500Z,102523.36
2018-09-01T05:33:43.249Z,102521.16
2018-09-01T05:36:10.948Z,102524.80
2018-09-01T05:38:38.761Z,102526.42
2018-09-01T05:41:06.453Z,102519.71
2018-09-01T05:43:34.208Z,102525.11
2018-09-01T05:46:01.833Z,102518.19
2018-09-01T05:48:29.485Z,102516.28
2018-09-01T05:50:57.141Z,102520.38
2018-09-01T05:53:24.800Z,102525.48
2018-09-01T05:55:52.473Z,102520.09
2018-09-01T05:58:20.160Z,102517.73
2018-09-01T06:00:49.751Z,102521.70
2018-09-01T06:03:17.724Z,102535.53
2018-09-01T06:05:45.909Z,102528.30
2018-09-01T06:08:13.576Z,102528.51
2018-09-01T06:10:41.241Z,102529.56
2018-09-01T06:13:08.912Z,102523.12
2018-09-01T06:15:36.774Z,102522.33
2018-09-01T06:18:04.905Z,102501.52
2018-09-01T06:20:32.681Z,102513.75
2018-09-01T06:23:00.447Z,102504.53
2018-09-01T06:25:28.115Z,102515.08
2018-09-01T06:27:58.699Z,102512.95
2018-09-01T06:30:32.905Z,102513.28
2018-09-01T06:33:00.800Z,102508.39
2018-09-01T06:35:28.368Z,102514.87
2018-09-01T06:37:56.941Z,102515.76
2018-09-01T06:40:24.608Z,102524.14
2018-09-01T06:42:52.320Z,102518.00
2018-09-01T06:45:20.069Z,102520.53
2018-09-01T06:47:47.757Z,102514.67
2018-09-01T06:50:15.450Z,102516.67
2018-09-01T06:52:43.102Z,102519.52
2018-09-01T06:55:10.759Z,102518.88
2018-09-01T06:57:38.440Z,102513.19
2018-09-01T07:00:06.703Z,102521.44
2018-09-01T07:02:34.385Z,102525.95
2018-09-01T07:05:02.020Z,102521.86
2018-09-01T07:07:29.715Z,102522.53
2018-09-01T07:09:57.386Z,102494.13
2018-09-01T07:12:25.107Z,102528.11
2018-09-01T07:14:52.812Z,102521.09
2018-09-01T07:17:20.471Z,102526.53
2018-09-01T07:19:48.190Z,102516.95
2018-09-01T07:22:15.840Z,102518.86
2018-09-01T07:24:43.512Z,102517.48
2018-09-01T07:27:11.165Z,102518.95
2018-09-01T07:29:38.850Z,102516.22
2018-09-01T07:32:06.520Z,102514.80
2018-09-01T07:34:34.259Z,102513.41
2018-09-01T07:37:02.038Z,102520.28
2018-09-01T07:39:29.722Z,102510.34
2018-09-01T07:41:57.446Z,102511.41
2018-09-01T07:44:25.148Z,102517.33
2018-09-01T07:46:52.868Z,102524.27
2018-09-01T07:49:20.589Z,102514.09
2018-09-01T07:51:48.281Z,102510.69
2018-09-01T07:54:15.989Z,102506.31
2018-09-01T07:56:43.721Z,102517.05
2018-09-01T07:59:11.429Z,102514.36
2018-09-01T08:01:39.116Z,102515.53
2018-09-01T08:04:06.828Z,102520.64
2018-09-01T08:06:34.535Z,102518.30
2018-09-01T08:09:02.343Z,102517.64
2018-09-01T08:11:30.042Z,102477.34
2018-09-01T08:13:57.876Z,102520.67
2018-09-01T08:16:25.468Z,102514.05
2018-09-01T08:18:53.145Z,102519.55
2018-09-01T08:21:20.833Z,102505.36
2018-09-01T08:23:48.506Z,102513.41
2018-09-01T08:26:16.171Z,102513.80
2018-09-01T08:28:43.851Z,102515.64
2018-09-01T08:31:11.537Z,102511.52
2018-09-01T08:33:39.311Z,102510.92
2018-09-01T08:36:06.967Z,102503.34
2018-09-01T08:38:34.733Z,102511.02
2018-09-01T08:41:02.401Z,102511.58
2018-09-01T08:43:30.074Z,102505.45
2018-09-01T08:45:57.853Z,102511.31
2018-09-01T08:48:25.600Z,102508.84
2018-09-01T08:50:53.293Z,102507.58
2018-09-01T08:53:21.062Z,102511.58
2018-09-01T08:55:48.778Z,102509.02
2018-09-01T08:58:16.465Z,102504.00
2018-09-01T09:00:44.253Z,102501.26
2018-09-01T09:03:11.931Z,102499.70
2018-09-01T09:05:39.612Z,102500.87
2018-09-01T09:08:07.398Z,102504.47
2018-09-01T09:10:35.077Z,102496.02
2018-09-01T09:13:02.765Z,102500.12
2018-09-01T09:15:30.605Z,102496.83
2018-09-01T09:17:58.261Z,102497.72
2018-09-01T09:20:25.958Z,102490.03
2018-09-01T09:22:53.770Z,102496.02
2018-09-01T09:25:21.462Z,102492.13
2018-09-01T09:27:49.141Z,102491.84
2018-09-01T09:30:16.933Z,102491.48
2018-09-01T09:32:44.625Z,102495.71
2018-09-01T09:35:12.347Z,102490.50
2018-09-01T09:37:40.134Z,102487.33
2018-09-01T09:40:07.835Z,102495.11
2018-09-01T09:42:35.518Z,102498.70
2018-09-01T09:45:03.443Z,102490.36
2018-09-01T09:47:31.108Z,102495.65
2018-09-01T09:49:58.767Z,102489.55
2018-09-01T09:52:26.524Z,102489.24
2018-09-01T09:54:54.217Z,102489.56
2018-09-01T09:57:21.878Z,102480.88
2018-09-01T09:59:49.662Z,102486.61
2018-09-01T10:02:17.351Z,102483.15
2018-09-01T10:04:45.048Z,102481.36
2018-09-01T10:07:12.777Z,102475.27
2018-09-01T10:09:40.433Z,102482.45
2018-09-01T10:12:08.115Z,102477.84
2018-09-01T10:14:35.849Z,102471.19
2018-09-01T10:17:03.521Z,102475.20
2018-09-01T10:19:31.170Z,102473.72
2018-09-01T10:21:58.965Z,102468.20
2018-09-01T10:24:26.619Z,102474.11
2018-09-01T10:26:54.330Z,102457.51
2018-09-01T10:29:22.095Z,102457.05
2018-09-01T10:31:49.797Z,102463.92
2018-09-01T10:34:17.473Z,102464.48
2018-09-01T10:36:45.326Z,102465.23
2018-09-01T10:39:13.032Z,102471.75
2018-09-01T10:41:40.714Z,102461.66
2018-09-01T10:44:09.174Z,102459.55
2018-09-01T10:46:36.855Z,102463.09
2018-09-01T10:49:04.778Z,102465.23
2018-09-01T10:51:32.538Z,102464.22
2018-09-01T10:54:00.242Z,102463.61
2018-09-01T10:56:27.909Z,102460.23
2018-09-01T10:58:55.704Z,102462.83
2018-09-01T11:01:23.474Z,102459.16
2018-09-01T11:03:51.152Z,102470.55
2018-09-01T11:06:19.017Z,102466.88
2018-09-01T11:08:46.665Z,102466.72
2018-09-01T11:11:14.346Z,102469.38
2018-09-01T11:13:42.175Z,102464.06
2018-09-01T11:16:09.822Z,102471.96
2018-09-01T11:18:37.517Z,102467.98
2018-09-01T11:21:05.290Z,102464.12
2018-09-01T11:23:33.001Z,102458.66
2018-09-01T11:26:00.693Z,102457.27
2018-09-01T11:28:28.458Z,102465.38
2018-09-01T11:30:56.239Z,102462.72
2018-09-01T11:33:23.945Z,102463.20
2018-09-01T11:35:51.859Z,102457.09
2018-09-01T11:38:19.563Z,102459.44
2018-09-01T11:40:48.820Z,102457.10
2018-09-01T11:43:16.730Z,102462.98
2018-09-01T11:45:44.406Z,102460.13
2018-09-01T11:48:12.113Z,102456.07
2018-09-01T11:50:39.900Z,102452.56
2018-09-01T11:53:07.697Z,102454.22
2018-09-01T11:55:35.418Z,102458.98
2018-09-01T11:58:03.239Z,102451.94
2018-09-01T12:00:30.935Z,102449.66
2018-09-01T12:02:58.622Z,102454.60
2018-09-01T12:05:26.513Z,102458.66
2018-09-01T12:07:54.400Z,102454.60
2018-09-01T12:10:22.112Z,102447.90
2018-09-01T12:12:49.918Z,102449.11
2018-09-01T12:15:17.654Z,102446.16
2018-09-01T12:17:45.422Z,102452.45
2018-09-01T12:20:13.269Z,102449.95
2018-09-01T12:22:40.993Z,102449.40
2018-09-01T12:25:08.693Z,102449.23
2018-09-01T12:27:36.535Z,102445.62
2018-09-01T12:30:04.382Z,102442.19
2018-09-01T12:32:32.074Z,102447.56
2018-09-01T12:34:59.945Z,102448.50
2018-09-01T12:37:27.645Z,102450.64
2018-09-01T12:39:55.413Z,102448.31
2018-09-01T12:42:23.236Z,102439.31
2018-09-01T12:44:50.919Z,102441.42
2018-09-01T12:47:18.657Z,102444.03
2018-09-01T12:49:46.485Z,102443.44
2018-09-01T12:52:14.195Z,102444.55
2018-09-01T12:54:41.880Z,102449.86
2018-09-01T12:57:09.590Z,102447.03
2018-09-01T12:59:37.363Z,102450.91
2018-09-01T13:02:05.250Z,102449.02
2018-09-01T13:04:32.988Z,102451.41
2018-09-01T13:07:00.723Z,102445.03
2018-09-01T13:09:28.422Z,102442.02
2018-09-01T13:11:56.134Z,102440.69
2018-09-01T13:14:23.845Z,102438.42
2018-09-01T13:16:51.549Z,102438.25
2018-09-01T13:19:19.273Z,102439.36
2018-09-01T13:21:47.010Z,102432.98
2018-09-01T13:24:14.706Z,102436.00
2018-09-01T13:26:42.425Z,102429.17
2018-09-01T13:29:10.142Z,102422.61
2018-09-01T13:31:37.921Z,102424.55
2018-09-01T13:34:05.755Z,102423.78
2018-09-01T13:36:33.461Z,102424.83
2018-09-01T13:39:01.254Z,102423.60
2018-09-01T13:41:28.958Z,102420.31
2018-09-01T13:43:56.686Z,102418.28
2018-09-01T13:46:24.409Z,102426.86
2018-09-01T13:48:52.200Z,102426.02
2018-09-01T13:51:19.926Z,102423.71
2018-09-01T13:53:47.709Z,102414.95
2018-09-01T13:56:15.626Z,102422.06
2018-09-01T13:58:43.349Z,102416.81
2018-09-01T14:01:11.223Z,102410.12
2018-09-01T14:03:38.954Z,102421.08
2018-09-01T14:06:06.703Z,102413.48
2018-09-01T14:08:34.407Z,102410.44
2018-09-01T14:11:02.135Z,102357.64
2018-09-01T14:13:29.852Z,102410.64
2018-09-01T14:15:57.585Z,102407.59
2018-09-01T14:18:25.247Z,102405.49
2018-09-01T14:20:52.983Z,102409.31
2018-09-01T14:23:20.958Z,102403.50
2018-09-01T14:25:48.701Z,102396.84
2018-09-01T14:28:16.502Z,102401.15
2018-09-01T14:30:44.336Z,102404.83
2018-09-01T14:33:12.056Z,102415.09
2018-09-01T14:35:39.756Z,102416.73
2018-09-01T14:38:07.523Z,102415.97
2018-09-01T14:40:35.266Z,102411.48
2018-09-01T14:43:02.993Z,102414.46
2018-09-01T14:45:30.782Z,102411.48
2018-09-01T14:47:58.486Z,102420.25
2018-09-01T14:50:26.246Z,102419.86
2018-09-01T14:52:53.945Z,102423.85
2018-09-01T14:55:21.725Z,102421.58
2018-09-01T14:57:49.466Z,102429.66
2018-09-01T15:00:17.185Z,102426.52
2018-09-01T15:02:44.881Z,102386.08
2018-09-01T15:05:12.619Z,102424.80
2018-09-01T15:07:40.360Z,102426.86
2018-09-01T15:10:08.116Z,102429.45
2018-09-01T15:12:35.934Z,102435.55
2018-09-01T15:15:03.709Z,102429.73
2018-09-01T15:17:31.415Z,102431.45
2018-09-01T15:19:59.109Z,102430.13
2018-09-01T15:22:26.820Z,102431.84
2018-09-01T15:24:54.515Z,102436.78
2018-09-01T15:27:22.235Z,102436.78
2018-09-01T15:29:49.897Z,102436.39
2018-09-01T15:32:17.589Z,102431.00
2018-09-01T15:34:45.284Z,102434.99
2018-09-01T15:37:13.024Z,102431.45
2018-09-01T15:39:40.738Z,102423.95
2018-09-01T15:42:08.450Z,102424.59
2018-09-01T15:44:36.256Z,102426.41
2018-09-01T15:47:03.938Z,102420.77
2018-09-01T15:49:31.618Z,102408.41
2018-09-01T15:51:59.336Z,102415.05
2018-09-01T15:54:27.113Z,102411.13
2018-09-01T15:56:54.922Z,102409.31
2018-09-01T15:59:22.646Z,102409.83
2018-09-01T16:01:50.389Z,102418.20
2018-09-01T16:04:18.103Z,102412.59
2018-09-01T16:06:45.821Z,102414.25
2018-09-01T16:09:13.539Z,102421.28
2018-09-01T16:11:41.320Z,102420.22
2018-09-01T16:14:09.051Z,102420.92
2018-09-01T16:16:36.844Z,102424.08
2018-09-01T16:19:04.592Z,102424.48
2018-09-01T16:21:32.334Z,102423.44
2018-09-01T16:24:00.094Z,102412.80
2018-09-01T16:26:27.914Z,102411.19
2018-09-01T16:28:55.645Z,102413.52
2018-09-01T16:31:23.357Z,102418.95
2018-09-01T16:33:51.118Z,102416.50
2018-09-01T16:36:18.849Z,102424.34
2018-09-01T16:38:46.570Z,102428.05
2018-09-01T16:41:14.318Z,102425.84
2018-09-01T16:43:42.066Z,102426.05
2018-09-01T16:46:09.797Z,102424.72
2018-09-01T16:48:37.541Z,102423.01
2018-09-01T16:51:05.264Z,102428.55
2018-09-01T16:53:33.057Z,102423.56
2018-09-01T16:56:00.816Z,102428.55
2018-09-01T16:58:28.540Z,102421.05
2018-09-01T17:00:56.327Z,102422.35
2018-09-01T17:03:23.969Z,102421.64
2018-09-01T17:05:51.673Z,102428.46
2018-09-01T17:08:19.414Z,102422.91
2018-09-01T17:10:47.129Z,102425.18
2018-09-01T17:13:14.866Z,102428.77
2018-09-01T17:15:42.569Z,102426.78
2018-09-01T17:18:10.280Z,102433.81
2018-09-01T17:20:37.983Z,102431.09
2018-09-01T17:23:05.681Z,102428.50
2018-09-01T17:25:33.480Z,102420.40
2018-09-01T17:28:01.207Z,102431.98
2018-09-01T17:30:28.940Z,102432.77
2018-09-01T17:32:56.654Z,102428.95
2018-09-01T17:35:24.345Z,102431.61
2018-09-01T17:37:52.096Z,102434.25
2018-09-01T17:40:19.818Z,102441.17
2018-09-01T17:42:47.541Z,102429.33
2018-09-01T17:45:15.281Z,102435.75
2018-09-01T17:47:42.993Z,102438.05
2018-09-01T17:50:10.689Z,102451.80
2018-09-01T17:52:38.405Z,102446.74
2018-09-01T17:55:06.267Z,102451.58
2018-09-01T17:57:34.069Z,102449.23
2018-09-01T18:00:01.797Z,102449.94
2018-09-01T18:02:29.605Z,102458.77
2018-09-01T18:04:57.408Z,102451.33
2018-09-01T18:07:25.145Z,102455.36
2018-09-01T18:09:52.956Z,102455.24
2018-09-01T18:12:20.650Z,102462.22
2018-09-01T18:14:48.370Z,102463.87
2018-09-01T18:17:16.213Z,102464.56
2018-09-01T18:19:43.936Z,102465.17
2018-09-01T18:22:11.629Z,102467.13
2018-09-01T18:24:39.324Z,102464.85
2018-09-01T18:27:07.043Z,102469.84
2018-09-01T18:29:34.792Z,102475.42
2018-09-01T18:32:02.536Z,102477.24
2018-09-01T18:34:30.291Z,102481.23
2018-09-01T18:36:58.066Z,102485.50
2018-09-01T18:39:25.872Z,102482.51
2018-09-01T18:41:53.674Z,102487.72
2018-09-01T18:44:21.839Z,102486.17
2018-09-01T18:46:49.645Z,102482.70
2018-09-01T18:49:17.343Z,102481.26
2018-09-01T18:51:45.186Z,102481.03
2018-09-01T18:54:12.943Z,102480.79
2018-09-01T18:56:40.768Z,102487.64
2018-09-01T18:59:08.677Z,102485.88
2018-09-01T19:01:36.434Z,102487.11
2018-09-01T19:04:04.216Z,102492.91
2018-09-01T19:06:32.079Z,102495.20
2018-09-01T19:08:59.814Z,102493.30
2018-09-01T19:11:27.525Z,102489.62
2018-09-01T19:13:55.426Z,102497.03
2018-09-01T19:16:23.160Z,102486.88
2018-09-01T19:18:50.873Z,102486.48
2018-09-01T19:21:18.749Z,102489.08
2018-09-01T19:23:46.469Z,102480.19
2018-09-01T19:26:14.178Z,102473.61
2018-09-01T19:28:42.005Z,102483.12
2018-09-01T19:31:09.713Z,102479.70
2018-09-01T19:33:37.407Z,102486.50
2018-09-01T19:36:05.561Z,102489.30
2018-09-01T19:38:33.266Z,102488.48
2018-09-01T19:41:01.029Z,102489.41
2018-09-01T19:43:28.906Z,102489.03
2018-09-01T19:45:56.628Z,102488.63
2018-09-01T19:48:24.323Z,102492.81
2018-09-01T19:50:52.110Z,102494.45
2018-09-01T19:53:19.821Z,102501.53
2018-09-01T19:55:47.529Z,102498.23
2018-09-01T19:58:15.363Z,102506.62
2018-09-01T20:00:43.081Z,102510.47
2018-09-01T20:03:10.774Z,102506.59
2018-09-01T20:05:38.556Z,102507.39
2018-09-01T20:08:06.298Z,102514.41
2018-09-01T20:10:33.968Z,102519.19
2018-09-01T20:13:01.795Z,102503.20
2018-09-01T20:15:29.493Z,102500.41
2018-09-01T20:17:57.194Z,102492.33
2018-09-01T20:20:25.004Z,102504.13
2018-09-01T20:22:52.758Z,102493.14
2018-09-01T20:25:20.552Z,102505.38
2018-09-01T20:27:48.246Z,102501.88
2018-09-01T20:30:15.960Z,102511.19
2018-09-01T20:32:43.666Z,102503.59
2018-09-01T20:35:16.866Z,102510.83
2018-09-01T20:37:44.563Z,102510.72
2018-09-01T20:40:12.274Z,102514.86
2018-09-01T20:42:40.078Z,102507.80
2018-09-01T20:45:07.869Z,102513.37
2018-09-01T20:47:35.692Z,102508.75
2018-09-01T20:50:03.546Z,102503.12
2018-09-01T20:52:31.481Z,102501.88
2018-09-01T20:54:59.167Z,102497.36
2018-09-01T20:57:26.965Z,102499.62
2018-09-01T20:59:54.664Z,102506.35
2018-09-01T21:05:01.921Z,102522.94
2018-09-01T21:07:29.643Z,102515.55
2018-09-01T21:09:57.353Z,102518.16
2018-09-01T21:12:25.133Z,102515.83
2018-09-01T21:14:52.810Z,102515.31
2018-09-01T21:17:20.506Z,102515.95
2018-09-01T21:19:48.266Z,102515.03
2018-09-01T21:22:15.969Z,102513.70
2018-09-01T21:24:43.658Z,102516.47
2018-09-01T21:27:11.453Z,102510.64
2018-09-01T21:29:39.161Z,102519.27
2018-09-01T21:32:06.853Z,102510.19
2018-09-01T21:34:34.675Z,102510.45
2018-09-01T21:37:02.393Z,102519.55
2018-09-01T21:39:30.103Z,102521.97
2018-09-01T21:41:57.896Z,102521.81
2018-09-01T21:44:25.600Z,102526.53
2018-09-01T21:46:53.277Z,102521.69
2018-09-01T21:49:21.042Z,102530.95
2018-09-01T21:51:48.713Z,102525.59
2018-09-01T21:54:16.385Z,102524.97
2018-09-01T21:56:44.159Z,102508.77
2018-09-01T21:59:11.841Z,102513.99
2018-09-01T22:01:39.505Z,102515.16
2018-09-01T22:04:07.381Z,102528.30
2018-09-01T22:06:35.104Z,102522.48
2018-09-01T22:09:02.946Z,102520.56
2018-09-01T22:11:30.612Z,102536.08
2018-09-01T22:13:58.388Z,102532.14
2018-09-01T22:16:26.093Z,102538.80
2018-09-01T22:18:53.770Z,102527.56
2018-09-01T22:21:21.461Z,102522.97
2018-09-01T22:23:49.178Z,102525.82
2018-09-01T22:26:16.890Z,102527.44
2018-09-01T22:28:44.576Z,102529.09
2018-09-01T22:31:12.274Z,102529.92
2018-09-01T22:33:39.977Z,102525.59
2018-09-01T22:36:07.688Z,102527.72
2018-09-01T22:38:35.475Z,102513.75
2018-09-01T22:41:03.234Z,102511.75
2018-09-01T22:43:30.956Z,102512.63
2018-09-01T22:45:58.741Z,102516.40
2018-09-01T22:48:26.432Z,102511.56
2018-09-01T22:50:54.116Z,102517.73
2018-09-01T22:53:21.809Z,102518.44
2018-09-01T22:55:49.487Z,102525.17
2018-09-01T22:58:17.262Z,102524.98
2018-09-01T23:00:44.972Z,102519.92
2018-09-01T23:03:12.671Z,102521.73
2018-09-01T23:05:40.401Z,102525.63
2018-09-01T23:08:08.086Z,102528.81
2018-09-01T23:10:35.874Z,102524.59
2018-09-01T23:13:03.626Z,102515.72
2018-09-01T23:15:31.421Z,102522.58
2018-09-01T23:17:59.097Z,102522.07
2018-09-01T23:20:26.801Z,102526.08
2018-09-01T23:22:54.465Z,102530.00
2018-09-01T23:25:22.154Z,102524.01
2018-09-01T23:27:49.838Z,102531.42
2018-09-01T23:30:17.528Z,102531.22
2018-09-01T23:32:45.187Z,102527.05
2018-09-01T23:35:12.874Z,102521.87
2018-09-01T23:37:40.577Z,102531.67
2018-09-01T23:40:08.266Z,102534.63
2018-09-01T23:42:35.959Z,102535.17
2018-09-01T23:45:03.683Z,102527.66
2018-09-01T23:47:31.350Z,102526.83
2018-09-01T23:49:59.016Z,102533.17
2018-09-01T23:52:26.701Z,102535.54
2018-09-01T23:54:54.397Z,102523.12
2018-09-01T23:57:22.116Z,102526.55
2018-09-01T23:59:49.830Z,102538.22
